Time;durP1;ratioP1;P1;durP2;ratioP2;P2;SDS_P1;SDS_P2;PMS_P1;PMS_P2;Temp;Humidity;BMP_temperature;BMP_pressure;BME280_temperature;BME280_humidity;BME280_pressure;Samples;Min_cycle;Max_cycle;Signal;HPM_P1;HPM_P2
2022/08/01 00:00:43;;;;;;;5.10;2.40;;;24.80;62.50;;;;;;5049575;28;20253;-74
2022/08/01 00:03:11;;;;;;;4.83;1.60;;;24.80;62.80;;;;;;5051316;28;20323;-74
2022/08/01 00:05:38;;;;;;;1.90;1.70;;;24.70;62.80;;;;;;5064214;28;20608;-76
2022/08/01 00:08:05;;;;;;;2.27;1.93;;;24.70;63.00;;;;;;5061552;28;20209;-76
2022/08/01 00:10:32;;;;;;;1.90;1.80;;;24.70;63.10;;;;;;5058200;28;20199;-76
2022/08/01 00:13:02;;;;;;;5.30;2.30;;;24.60;63.00;;;;;;5047771;28;20210;-76
2022/08/01 00:15:29;;;;;;;9.50;2.23;;;24.60;63.00;;;;;;5055698;28;20659;-76
2022/08/01 00:17:56;;;;;;;5.10;1.83;;;24.60;62.60;;;;;;5048304;28;20514;-76
2022/08/01 00:20:23;;;;;;;13.93;2.13;;;24.60;62.60;;;;;;5053137;28;20603;-76
2022/08/01 00:22:50;;;;;;;4.03;1.80;;;24.60;62.40;;;;;;5032308;28;20274;-76
2022/08/01 00:25:18;;;;;;;1.70;1.60;;;24.60;62.40;;;;;;5048958;28;20289;-76
2022/08/01 00:27:45;;;;;;;3.27;1.97;;;24.60;62.00;;;;;;5050181;28;20206;-76
2022/08/01 00:30:13;;;;;;;2.40;1.43;;;24.50;61.40;;;;;;5047967;28;20216;-76
2022/08/01 00:32:42;;;;;;;2.37;1.70;;;24.50;61.00;;;;;;5053058;28;20214;-76
2022/08/01 00:35:10;;;;;;;3.07;1.70;;;24.50;61.00;;;;;;5041076;28;20202;-76
2022/08/01 00:37:37;;;;;;;4.33;2.13;;;24.50;61.20;;;;;;5044134;28;20211;-76
2022/08/01 00:40:05;;;;;;;2.77;1.60;;;24.50;61.00;;;;;;5054630;28;20232;-76
2022/08/01 00:42:32;;;;;;;3.63;1.70;;;24.50;60.10;;;;;;5055798;28;20209;-76
2022/08/01 00:45:00;;;;;;;2.63;1.80;;;24.50;59.50;;;;;;5052766;28;20207;-76
2022/08/01 00:47:27;;;;;;;4.23;1.70;;;24.60;58.90;;;;;;5047196;28;20197;-76
2022/08/01 00:49:54;;;;;;;3.50;1.87;;;24.60;58.30;;;;;;5049347;28;20298;-76
2022/08/01 00:52:21;;;;;;;2.03;1.83;;;24.60;57.90;;;;;;5038688;28;20620;-74
2022/08/01 00:54:48;;;;;;;2.03;1.70;;;24.60;57.70;;;;;;5048822;28;20302;-74
2022/08/01 00:57:15;;;;;;;5.03;2.00;;;24.60;57.50;;;;;;5055155;28;20201;-74
2022/08/01 01:00:04;;;;;;;3.40;1.80;;;24.60;57.20;;;;;;5051883;28;20242;-74
2022/08/01 01:02:31;;;;;;;2.30;2.10;;;24.60;57.20;;;;;;5044721;28;20412;-74
2022/08/01 01:05:02;;;;;;;2.00;1.80;;;24.60;56.80;;;;;;5044855;28;20223;-77
2022/08/01 01:07:50;;;;;;;3.33;1.70;;;24.60;56.70;;;;;;5048630;28;20229;-76
2022/08/01 01:10:31;;;;;;;2.60;1.73;;;24.60;56.70;;;;;;5051173;28;20221;-76
2022/08/01 01:13:23;;;;;;;2.37;2.00;;;24.60;56.60;;;;;;5049373;28;20207;-76
2022/08/01 01:15:58;;;;;;;3.43;1.97;;;24.60;56.70;;;;;;5049097;28;20227;-76
2022/08/01 01:18:37;;;;;;;3.57;2.13;;;24.60;57.20;;;;;;5043674;28;20210;-76
2022/08/01 01:21:16;;;;;;;2.27;1.80;;;24.60;58.10;;;;;;5044974;28;20231;-76
2022/08/01 01:24:11;;;;;;;2.33;2.03;;;24.50;59.20;;;;;;5062100;28;20207;-76
2022/08/01 01:26:42;;;;;;;4.27;2.10;;;24.50;59.40;;;;;;5043940;28;20295;-76
2022/08/01 01:29:38;;;;;;;2.47;1.80;;;24.40;58.80;;;;;;5046088;28;20571;-76
2022/08/01 01:32:46;;;;;;;4.23;2.63;;;24.30;58.70;;;;;;5054661;28;20225;-74
2022/08/01 01:35:22;;;;;;;2.87;1.90;;;24.30;59.20;;;;;;5044847;28;20293;-74
2022/08/01 01:37:54;;;;;;;2.30;2.10;;;24.20;59.20;;;;;;5059645;28;20205;-73
2022/08/01 01:40:22;;;;;;;4.23;2.00;;;24.20;59.20;;;;;;5036324;28;20222;-73
2022/08/01 01:42:51;;;;;;;1.63;1.43;;;24.20;59.40;;;;;;5050139;28;20294;-74
2022/08/01 01:45:20;;;;;;;1.70;1.60;;;24.20;59.10;;;;;;5050558;28;20210;-74
2022/08/01 01:47:48;;;;;;;2.50;2.07;;;24.20;58.90;;;;;;5051082;28;20207;-73
2022/08/01 01:50:15;;;;;;;3.50;2.00;;;24.20;59.60;;;;;;5045002;28;20206;-73
2022/08/01 01:52:44;;;;;;;4.70;2.00;;;24.20;59.40;;;;;;5047782;28;20288;-73
2022/08/01 01:55:12;;;;;;;2.30;2.10;;;24.10;60.20;;;;;;5047559;28;20264;-73
2022/08/01 01:57:41;;;;;;;1.90;1.80;;;24.10;60.50;;;;;;5047491;28;20278;-74
2022/08/01 02:00:11;;;;;;;3.13;2.10;;;24.00;60.70;;;;;;5045546;28;20233;-74
2022/08/01 02:02:40;;;;;;;3.60;2.07;;;24.10;60.80;;;;;;5060901;28;20203;-75
2022/08/01 02:05:11;;;;;;;3.47;1.70;;;24.00;60.40;;;;;;5060275;28;20786;-75
2022/08/01 02:07:40;;;;;;;3.77;1.77;;;24.00;60.10;;;;;;5045668;28;20229;-75
2022/08/01 02:10:11;;;;;;;2.90;1.80;;;24.00;60.30;;;;;;5046107;28;20606;-76
2022/08/01 02:12:43;;;;;;;5.57;1.90;;;24.00;59.80;;;;;;5053830;28;20207;-75
2022/08/01 02:15:12;;;;;;;2.23;2.10;;;23.90;60.50;;;;;;5047324;28;20312;-76
2022/08/01 02:17:43;;;;;;;2.00;1.80;;;24.00;61.10;;;;;;5049931;28;20215;-75
2022/08/01 02:20:10;;;;;;;4.17;1.90;;;23.90;60.40;;;;;;5044165;28;20403;-74
2022/08/01 02:22:57;;;;;;;4.07;2.00;;;23.90;59.10;;;;;;5046031;28;20213;-74
2022/08/01 02:25:38;;;;;;;4.60;1.90;;;23.90;57.80;;;;;;5060807;28;20265;-74
2022/08/01 02:28:32;;;;;;;1.90;1.70;;;23.90;57.80;;;;;;5055792;28;20586;-74
2022/08/01 02:31:03;;;;;;;3.23;2.00;;;23.90;57.40;;;;;;5048170;28;20299;-74
2022/08/01 02:33:38;;;;;;;3.00;1.67;;;23.90;57.50;;;;;;5047169;28;20649;-74
2022/08/01 02:36:07;;;;;;;3.33;1.80;;;23.90;57.30;;;;;;5054081;28;20301;-74
2022/08/01 02:38:56;;;;;;;1.80;1.70;;;23.90;57.30;;;;;;5051651;28;20213;-74
2022/08/01 02:41:26;;;;;;;4.70;2.00;;;23.90;57.30;;;;;;5046955;28;20272;-74
2022/08/01 02:44:04;;;;;;;3.67;1.80;;;23.90;57.30;;;;;;5044911;28;20253;-74
2022/08/01 02:46:37;;;;;;;2.60;2.03;;;23.90;57.50;;;;;;5052242;28;20285;-74
2022/08/01 02:49:08;;;;;;;2.10;1.90;;;23.90;57.60;;;;;;5044230;28;20199;-74
2022/08/01 02:51:37;;;;;;;2.67;1.70;;;23.80;57.60;;;;;;5061981;28;20209;-73
2022/08/01 02:54:08;;;;;;;2.83;2.00;;;23.70;57.40;;;;;;5049424;28;20207;-74
2022/08/01 02:56:36;;;;;;;3.33;1.87;;;23.80;57.60;;;;;;5050026;28;20215;-74
2022/08/01 02:59:07;;;;;;;2.13;1.80;;;23.70;57.70;;;;;;5048223;28;20238;-74
2022/08/01 03:01:35;;;;;;;2.00;1.90;;;23.70;57.70;;;;;;5047339;28;20227;-74
2022/08/01 03:04:05;;;;;;;2.70;2.00;;;23.70;57.70;;;;;;5056574;28;20206;-74
2022/08/01 03:06:33;;;;;;;5.03;2.00;;;23.80;57.80;;;;;;5048612;28;20202;-74
2022/08/01 03:09:03;;;;;;;3.53;1.97;;;23.70;57.70;;;;;;5040037;28;20231;-74
2022/08/01 03:11:31;;;;;;;2.47;1.80;;;23.70;57.70;;;;;;5045692;28;20195;-74
2022/08/01 03:14:04;;;;;;;4.93;2.00;;;23.70;57.70;;;;;;5043625;28;20210;-73
2022/08/01 03:16:35;;;;;;;4.40;2.20;;;23.70;57.60;;;;;;5042015;28;20225;-74
2022/08/01 03:19:03;;;;;;;2.00;1.80;;;23.70;58.20;;;;;;5046644;28;20234;-74
2022/08/01 03:21:32;;;;;;;3.70;2.10;;;23.80;57.60;;;;;;5044077;28;20610;-74
2022/08/01 03:24:01;;;;;;;5.97;2.50;;;23.80;57.70;;;;;;5043807;28;20202;-74
2022/08/01 03:26:30;;;;;;;3.53;2.27;;;23.80;57.80;;;;;;5044503;28;20264;-73
2022/08/01 03:29:09;;;;;;;2.47;2.27;;;23.70;57.90;;;;;;5051161;28;20203;-76
2022/08/01 03:31:38;;;;;;;2.97;2.20;;;23.70;57.90;;;;;;5046876;28;20209;-76
2022/08/01 03:34:06;;;;;;;4.20;2.10;;;23.70;57.90;;;;;;5062275;28;20207;-76
2022/08/01 03:36:41;;;;;;;3.67;2.13;;;23.60;58.10;;;;;;5045231;28;20206;-74
2022/08/01 03:39:11;;;;;;;3.37;2.07;;;23.60;58.30;;;;;;5049869;28;20203;-74
2022/08/01 03:41:43;;;;;;;2.20;1.90;;;23.60;58.40;;;;;;5055349;28;20219;-74
2022/08/01 03:44:16;;;;;;;3.10;2.80;;;23.60;58.70;;;;;;5055439;28;20234;-74
2022/08/01 03:46:47;;;;;;;2.87;2.30;;;23.60;59.30;;;;;;5064379;28;20199;-74
2022/08/01 03:49:35;;;;;;;2.37;2.17;;;23.60;59.40;;;;;;5050183;28;20825;-73
2022/08/01 03:52:06;;;;;;;2.50;2.03;;;23.50;58.70;;;;;;5053091;28;20210;-73
2022/08/01 03:54:39;;;;;;;3.17;2.33;;;23.50;58.80;;;;;;5053333;28;20207;-73
2022/08/01 03:57:07;;;;;;;3.63;2.17;;;23.50;59.50;;;;;;5048392;28;20202;-74
2022/08/01 03:59:56;;;;;;;5.23;2.17;;;23.50;59.80;;;;;;5058771;28;20248;-74
2022/08/01 04:02:25;;;;;;;3.67;2.40;;;23.40;60.50;;;;;;5053849;28;20701;-74
2022/08/01 04:04:53;;;;;;;5.43;2.00;;;23.40;60.80;;;;;;5050080;28;20231;-74
2022/08/01 04:07:29;;;;;;;2.77;2.50;;;23.40;60.20;;;;;;5054198;28;20333;-74
2022/08/01 04:09:56;;;;;;;3.33;2.40;;;23.30;59.80;;;;;;5048352;28;20281;-74
2022/08/01 04:12:24;;;;;;;2.40;2.20;;;23.40;59.90;;;;;;5040226;28;20295;-73
2022/08/01 04:14:51;;;;;;;2.53;2.30;;;23.30;59.90;;;;;;5055977;28;20239;-73
2022/08/01 04:17:18;;;;;;;4.30;2.40;;;23.30;59.90;;;;;;5046624;28;20202;-73
2022/08/01 04:19:46;;;;;;;3.70;2.53;;;23.30;59.80;;;;;;5047952;28;20272;-73
2022/08/01 04:22:16;;;;;;;4.57;2.40;;;23.30;59.90;;;;;;5048318;28;20293;-74
2022/08/01 04:24:49;;;;;;;2.87;2.20;;;23.30;60.10;;;;;;5053162;28;20256;-74
2022/08/01 04:27:29;;;;;;;4.43;2.40;;;23.30;60.20;;;;;;5049977;28;20190;-73
2022/08/01 04:30:20;;;;;;;3.53;2.20;;;23.30;60.70;;;;;;5048479;28;20645;-73
2022/08/01 04:32:49;;;;;;;4.50;2.40;;;23.20;60.70;;;;;;5049499;28;20280;-75
2022/08/01 04:35:19;;;;;;;3.40;2.40;;;23.20;61.20;;;;;;5050937;28;20207;-76
2022/08/01 04:38:09;;;;;;;3.47;2.60;;;23.20;62.30;;;;;;5044176;28;20235;-75
2022/08/01 04:40:37;;;;;;;4.70;2.67;;;23.20;62.70;;;;;;5050898;28;20219;-75
2022/08/01 04:43:05;;;;;;;6.37;2.70;;;23.20;63.40;;;;;;5044238;28;20199;-76
2022/08/01 04:45:34;;;;;;;3.77;2.70;;;23.10;63.90;;;;;;5044037;28;20195;-75
2022/08/01 04:48:02;;;;;;;5.57;2.40;;;23.10;64.10;;;;;;5051253;28;20365;-76
2022/08/01 04:50:29;;;;;;;2.50;2.30;;;23.10;64.40;;;;;;5052397;28;20282;-75
2022/08/01 04:52:56;;;;;;;6.03;2.50;;;23.00;64.70;;;;;;5052131;28;20210;-75
2022/08/01 04:55:24;;;;;;;9.20;2.80;;;23.00;64.80;;;;;;5049589;28;20235;-75
2022/08/01 04:57:51;;;;;;;3.77;2.40;;;23.00;64.50;;;;;;5050507;28;20203;-75
2022/08/01 05:00:18;;;;;;;4.40;2.57;;;23.00;64.50;;;;;;5050039;28;20254;-75
2022/08/01 05:02:46;;;;;;;2.80;2.60;;;23.10;64.90;;;;;;5041012;28;20203;-75
2022/08/01 05:05:14;;;;;;;7.30;2.50;;;23.10;65.10;;;;;;5050587;28;20234;-75
2022/08/01 05:07:41;;;;;;;4.90;2.37;;;23.20;65.40;;;;;;5048804;28;20205;-75
2022/08/01 05:10:11;;;;;;;10.17;3.00;;;23.20;65.70;;;;;;5051122;28;20290;-75
2022/08/01 05:12:39;;;;;;;2.73;2.53;;;23.30;66.20;;;;;;5042269;28;20202;-76
2022/08/01 05:15:07;;;;;;;2.90;2.60;;;23.40;66.30;;;;;;5059811;28;20211;-75
2022/08/01 05:17:44;;;;;;;4.83;3.10;;;23.50;66.30;;;;;;5045858;28;20237;-75
2022/08/01 05:20:11;;;;;;;4.93;3.20;;;23.60;65.50;;;;;;5045559;28;20231;-76
2022/08/01 05:22:39;;;;;;;3.73;3.43;;;23.70;65.00;;;;;;5059105;28;20546;-75
2022/08/01 05:25:06;;;;;;;5.37;4.83;;;23.80;64.10;;;;;;5040292;28;20202;-75
2022/08/01 05:27:39;;;;;;;5.00;4.60;;;23.90;63.90;;;;;;5044812;28;20268;-75
2022/08/01 05:30:09;;;;;;;4.73;4.00;;;24.00;63.90;;;;;;5060179;28;20207;-75
2022/08/01 05:32:37;;;;;;;3.90;3.50;;;24.20;63.40;;;;;;5066378;28;20190;-75
2022/08/01 05:35:05;;;;;;;7.60;4.53;;;24.40;62.60;;;;;;5058069;28;20590;-75
2022/08/01 05:37:32;;;;;;;5.87;3.90;;;24.60;61.60;;;;;;5048420;28;20632;-75
2022/08/01 05:40:00;;;;;;;9.07;4.67;;;24.90;61.30;;;;;;5056755;28;20210;-75
2022/08/01 05:42:27;;;;;;;9.00;5.00;;;25.20;60.30;;;;;;5042380;28;20584;-75
2022/08/01 05:44:54;;;;;;;8.73;5.17;;;25.40;59.40;;;;;;5060111;28;20212;-75
2022/08/01 05:47:21;;;;;;;13.10;5.90;;;25.70;58.80;;;;;;5043859;28;20195;-75
2022/08/01 05:49:49;;;;;;;9.50;4.87;;;25.90;58.50;;;;;;5044278;28;20278;-75
2022/08/01 05:52:16;;;;;;;8.00;5.83;;;26.00;58.50;;;;;;5047009;28;20241;-75
2022/08/01 05:54:44;;;;;;;7.57;5.97;;;26.10;58.20;;;;;;5030694;28;20301;-75
2022/08/01 05:57:12;;;;;;;7.07;6.47;;;26.20;58.10;;;;;;5048499;28;20212;-75
2022/08/01 05:59:41;;;;;;;7.80;7.10;;;26.40;58.30;;;;;;5060102;28;20248;-75
2022/08/01 06:02:08;;;;;;;10.07;8.03;;;26.40;58.10;;;;;;5037332;28;20229;-75
2022/08/01 06:04:36;;;;;;;11.27;8.63;;;26.60;58.00;;;;;;5043104;28;20213;-75
2022/08/01 06:07:03;;;;;;;9.40;7.73;;;26.70;57.80;;;;;;5046417;28;20560;-75
2022/08/01 06:09:30;;;;;;;8.73;7.93;;;26.80;57.50;;;;;;5057320;28;20195;-75
2022/08/01 06:11:57;;;;;;;8.23;7.40;;;26.90;56.80;;;;;;5043791;28;20639;-76
2022/08/01 06:14:25;;;;;;;13.10;9.80;;;27.00;57.00;;;;;;5040883;28;20207;-76
2022/08/01 06:16:52;;;;;;;11.83;9.23;;;27.10;57.10;;;;;;5051126;28;20301;-76
2022/08/01 06:19:19;;;;;;;15.50;9.17;;;27.20;57.10;;;;;;5041940;28;20203;-73
2022/08/01 06:21:46;;;;;;;11.00;9.90;;;27.30;57.10;;;;;;5045001;28;20225;-73
2022/08/01 06:24:15;;;;;;;14.27;10.30;;;27.50;56.90;;;;;;5036823;28;20198;-73
2022/08/01 06:26:43;;;;;;;10.90;9.80;;;27.60;56.90;;;;;;5042246;28;20211;-73
2022/08/01 06:29:10;;;;;;;15.37;9.33;;;27.70;56.70;;;;;;5049340;28;20249;-73
2022/08/01 06:31:38;;;;;;;15.57;10.47;;;27.80;56.50;;;;;;5047894;28;20219;-73
2022/08/01 06:34:05;;;;;;;11.47;10.23;;;27.90;56.30;;;;;;5050045;28;20232;-73
2022/08/01 06:36:32;;;;;;;13.30;10.93;;;28.00;56.00;;;;;;5047879;28;20214;-73
2022/08/01 06:38:59;;;;;;;12.13;10.97;;;28.10;55.30;;;;;;5056239;28;20687;-74
2022/08/01 06:41:26;;;;;;;14.60;10.73;;;28.20;55.40;;;;;;5038491;28;20560;-74
2022/08/01 06:43:53;;;;;;;11.47;10.33;;;28.40;55.60;;;;;;5039839;28;20580;-74
2022/08/01 06:46:20;;;;;;;12.53;11.23;;;28.50;55.30;;;;;;5045341;28;20213;-74
2022/08/01 06:48:47;;;;;;;12.93;11.73;;;28.60;54.30;;;;;;5044266;28;20253;-74
2022/08/01 06:51:17;;;;;;;12.10;10.90;;;28.70;54.50;;;;;;5051815;28;20211;-74
2022/08/01 06:53:45;;;;;;;13.67;11.27;;;28.90;54.40;;;;;;5029211;28;20202;-74
2022/08/01 06:56:12;;;;;;;11.80;10.57;;;29.00;53.90;;;;;;5049177;28;20206;-74
2022/08/01 06:58:39;;;;;;;10.97;9.70;;;29.20;53.40;;;;;;5042419;28;20536;-73
2022/08/01 07:01:06;;;;;;;13.23;9.80;;;29.40;53.20;;;;;;5049221;28;20549;-73
2022/08/01 07:03:35;;;;;;;10.20;9.10;;;29.50;52.90;;;;;;5041377;28;20505;-73
2022/08/01 07:06:24;;;;;;;11.03;9.13;;;29.70;52.40;;;;;;5051415;28;20259;-73
2022/08/01 07:08:52;;;;;;;10.90;8.43;;;29.90;52.30;;;;;;5043734;28;20647;-73
2022/08/01 07:11:20;;;;;;;9.20;8.33;;;30.00;51.40;;;;;;5045657;28;20567;-73
2022/08/01 07:13:48;;;;;;;9.50;7.10;;;30.20;50.70;;;;;;5045800;28;20625;-73
2022/08/01 07:16:16;;;;;;;11.23;9.27;;;30.30;50.70;;;;;;5050877;28;20296;-73
2022/08/01 07:18:43;;;;;;;14.30;9.20;;;30.40;50.40;;;;;;5060870;28;20247;-73
2022/08/01 07:21:11;;;;;;;18.07;9.93;;;30.40;49.90;;;;;;5047044;28;20299;-73
2022/08/01 07:23:58;;;;;;;8.30;7.47;;;30.50;49.50;;;;;;5046958;28;20207;-73
2022/08/01 07:26:27;;;;;;;17.47;9.13;;;30.60;49.90;;;;;;5051250;28;20290;-73
2022/08/01 07:28:54;;;;;;;13.07;7.60;;;30.70;49.40;;;;;;5051526;28;20221;-73
2022/08/01 07:31:22;;;;;;;8.27;7.57;;;30.70;49.00;;;;;;5050912;28;20213;-72
2022/08/01 07:33:51;;;;;;;11.27;7.50;;;30.80;49.60;;;;;;5051277;28;20199;-72
2022/08/01 07:36:19;;;;;;;8.90;7.07;;;30.80;49.30;;;;;;5048817;28;20213;-73
2022/08/01 07:38:47;;;;;;;10.13;7.70;;;31.00;48.40;;;;;;5056188;28;20729;-73
2022/08/01 07:41:15;;;;;;;12.07;7.83;;;31.10;49.10;;;;;;5054905;28;20660;-76
2022/08/01 07:43:44;;;;;;;9.77;8.40;;;31.20;49.00;;;;;;5068432;28;20230;-77
2022/08/01 07:46:24;;;;;;;13.93;7.00;;;31.30;48.20;;;;;;5058119;28;20229;-77
2022/08/01 07:48:51;;;;;;;10.70;6.43;;;31.40;48.40;;;;;;5053133;28;20328;-77
2022/08/01 07:51:18;;;;;;;8.90;6.70;;;31.60;48.20;;;;;;5047690;28;20207;-77
2022/08/01 07:53:45;;;;;;;7.27;6.00;;;31.70;47.70;;;;;;5044621;28;20217;-77
2022/08/01 07:56:12;;;;;;;8.17;7.37;;;31.80;47.40;;;;;;5062220;28;20284;-77
2022/08/01 07:58:40;;;;;;;8.03;6.90;;;32.00;47.00;;;;;;5047314;28;20230;-77
2022/08/01 08:01:07;;;;;;;9.60;7.30;;;32.10;46.30;;;;;;5053932;28;20215;-77
2022/08/01 08:03:34;;;;;;;7.07;6.37;;;32.20;45.90;;;;;;5042897;28;20253;-77
2022/08/01 08:06:01;;;;;;;6.33;5.30;;;32.20;46.40;;;;;;5044928;28;20202;-77
2022/08/01 08:08:28;;;;;;;9.50;6.33;;;32.40;46.50;;;;;;5042512;28;20558;-77
2022/08/01 08:10:55;;;;;;;12.63;6.57;;;32.50;46.50;;;;;;5040569;28;20199;-77
2022/08/01 08:13:23;;;;;;;8.13;6.30;;;32.60;45.90;;;;;;5046856;28;20210;-77
2022/08/01 08:15:50;;;;;;;10.77;6.73;;;32.80;45.60;;;;;;5044522;28;20227;-77
2022/08/01 08:18:17;;;;;;;7.00;6.30;;;33.00;45.70;;;;;;5060976;28;20230;-77
2022/08/01 08:20:44;;;;;;;7.80;7.20;;;33.10;45.50;;;;;;5030569;28;20517;-76
2022/08/01 08:26:09;;;;;;;9.13;6.50;;;33.40;44.80;;;;;;5041812;28;20217;-76
2022/08/01 08:28:36;;;;;;;7.60;6.17;;;33.50;44.00;;;;;;5050827;28;20198;-75
2022/08/01 08:31:06;;;;;;;6.17;5.53;;;33.60;44.20;;;;;;5050638;28;20218;-76
2022/08/01 08:33:54;;;;;;;9.10;6.90;;;33.70;43.90;;;;;;5047783;28;20206;-76
2022/08/01 08:36:21;;;;;;;6.70;5.90;;;33.80;43.80;;;;;;5045486;28;20235;-76
2022/08/01 08:39:00;;;;;;;8.77;6.10;;;33.90;43.70;;;;;;5043872;28;20238;-76
2022/08/01 08:41:30;;;;;;;9.90;5.70;;;34.00;43.30;;;;;;5054013;28;20221;-76
2022/08/01 08:44:08;;;;;;;10.40;5.47;;;34.10;43.60;;;;;;5048984;28;20220;-76
2022/08/01 08:46:55;;;;;;;6.20;4.40;;;34.20;44.00;;;;;;5041126;28;20210;-76
2022/08/01 08:49:26;;;;;;;7.00;4.90;;;34.30;44.20;;;;;;5046043;28;20203;-76
2022/08/01 08:52:03;;;;;;;8.40;6.03;;;34.40;43.50;;;;;;5056443;28;20668;-75
2022/08/01 08:54:33;;;;;;;4.20;3.80;;;34.50;42.60;;;;;;5062932;28;20632;-76
2022/08/01 08:57:01;;;;;;;3.80;3.50;;;34.60;42.30;;;;;;5052801;28;20202;-76
2022/08/01 08:59:29;;;;;;;6.60;3.93;;;34.70;41.00;;;;;;5065069;28;20234;-76
2022/08/01 09:01:58;;;;;;;5.77;3.63;;;34.70;41.10;;;;;;5049165;28;20222;-77
2022/08/01 09:04:32;;;;;;;6.50;3.70;;;34.70;41.30;;;;;;5051671;28;20210;-75
2022/08/01 09:06:59;;;;;;;9.10;4.50;;;34.80;42.00;;;;;;5052403;28;20204;-74
2022/08/01 09:09:27;;;;;;;4.43;3.90;;;34.90;41.20;;;;;;5044458;28;20218;-71
2022/08/01 09:11:55;;;;;;;8.83;5.10;;;34.90;40.90;;;;;;5043054;28;20297;-73
2022/08/01 09:14:29;;;;;;;5.40;4.63;;;35.00;41.30;;;;;;5060554;28;20229;-72
2022/08/01 09:17:10;;;;;;;6.27;4.00;;;35.10;42.00;;;;;;5053290;28;20206;-75
2022/08/01 09:19:52;;;;;;;4.87;4.40;;;35.20;41.60;;;;;;5057507;28;20207;-76
2022/08/01 09:22:24;;;;;;;6.43;4.70;;;35.40;41.70;;;;;;5048409;28;20217;-76
2022/08/01 09:25:08;;;;;;;3.57;3.23;;;35.50;41.30;;;;;;5045736;28;20199;-76
2022/08/01 09:27:40;;;;;;;6.80;3.90;;;35.60;40.20;;;;;;5044400;28;20238;-77
2022/08/01 09:30:14;;;;;;;7.03;3.37;;;35.70;40.30;;;;;;5035163;28;20206;-76
2022/08/01 09:33:02;;;;;;;6.20;3.20;;;35.70;40.20;;;;;;5052334;28;20506;-77
2022/08/01 09:35:53;;;;;;;2.50;2.30;;;35.70;39.80;;;;;;5040640;28;20767;-77
2022/08/01 09:38:23;;;;;;;4.13;2.07;;;35.80;39.00;;;;;;5048147;28;20252;-75
2022/08/01 09:40:53;;;;;;;3.83;2.10;;;35.80;37.60;;;;;;5051518;28;20268;-76
2022/08/01 09:43:27;;;;;;;5.70;2.40;;;35.80;37.40;;;;;;5051148;28;20267;-75
2022/08/01 09:45:56;;;;;;;3.17;2.30;;;36.00;38.20;;;;;;5058491;28;20210;-76
2022/08/01 09:48:25;;;;;;;2.87;1.70;;;36.00;38.00;;;;;;5054094;28;20216;-76
2022/08/01 09:50:59;;;;;;;4.80;2.10;;;36.10;38.50;;;;;;5063635;28;20217;-75
2022/08/01 09:53:45;;;;;;;3.53;2.00;;;36.30;37.90;;;;;;5047500;28;20199;-75
2022/08/01 09:56:21;;;;;;;2.20;1.80;;;36.40;37.50;;;;;;5042432;28;20222;-75
2022/08/01 09:58:58;;;;;;;3.40;2.20;;;36.50;36.60;;;;;;5046162;28;20535;-75
2022/08/01 10:01:42;;;;;;;3.33;1.87;;;36.70;37.20;;;;;;5045981;28;20217;-73
2022/08/01 10:04:15;;;;;;;4.47;2.17;;;36.80;37.30;;;;;;5045849;28;20700;-74
2022/08/01 10:06:52;;;;;;;3.67;2.30;;;36.90;37.30;;;;;;5055018;28;20249;-74
2022/08/01 10:09:36;;;;;;;8.05;2.80;;;37.00;37.50;;;;;;5052742;28;20210;-76
2022/08/01 10:12:08;;;;;;;4.38;1.95;;;37.00;37.80;;;;;;5045848;28;20206;-75
2022/08/01 10:14:43;;;;;;;5.22;2.60;;;37.20;37.50;;;;;;5038302;28;20632;-73
2022/08/01 10:17:14;;;;;;;12.95;2.08;;;37.30;36.40;;;;;;5045926;28;20474;-75
2022/08/01 10:19:46;;;;;;;4.13;1.95;;;37.30;36.90;;;;;;5044002;28;20298;-76
2022/08/01 10:22:17;;;;;;;2.35;2.00;;;37.50;36.30;;;;;;5052667;28;20219;-76
2022/08/01 10:24:46;;;;;;;4.93;2.13;;;37.50;35.20;;;;;;5045037;28;20218;-75
2022/08/01 10:27:16;;;;;;;3.50;2.35;;;37.50;34.70;;;;;;5040429;28;20233;-75
2022/08/01 10:30:07;;;;;;;3.63;2.10;;;37.50;35.50;;;;;;5044484;28;20278;-76
2022/08/01 10:32:54;;;;;;;2.40;2.20;;;37.50;35.60;;;;;;5037299;28;20215;-75
2022/08/01 10:35:21;;;;;;;2.40;2.20;;;37.60;34.70;;;;;;5053087;28;20199;-78
2022/08/01 10:38:09;;;;;;;3.80;1.60;;;37.50;34.70;;;;;;5047517;28;20206;-78
2022/08/01 10:40:43;;;;;;;3.58;1.85;;;37.50;34.20;;;;;;5046510;28;20281;-77
2022/08/01 10:43:12;;;;;;;2.50;2.13;;;37.60;34.10;;;;;;5042437;28;20318;-74
2022/08/01 10:45:49;;;;;;;4.00;1.83;;;37.70;34.60;;;;;;5051388;28;20213;-76
2022/08/01 10:48:38;;;;;;;1.92;1.83;;;37.80;34.50;;;;;;5055118;28;20281;-74
2022/08/01 10:51:06;;;;;;;2.10;1.73;;;37.90;34.20;;;;;;5041870;28;20380;-75
2022/08/01 10:53:53;;;;;;;4.50;1.92;;;37.90;33.10;;;;;;5045030;28;20198;-74
2022/08/01 10:56:22;;;;;;;5.43;1.83;;;38.00;33.90;;;;;;5043712;28;20752;-75
2022/08/01 10:59:02;;;;;;;3.15;1.70;;;38.00;33.50;;;;;;5049787;28;20234;-71
2022/08/01 11:01:38;;;;;;;5.25;1.77;;;38.20;33.50;;;;;;5045750;28;20286;-71
2022/08/01 11:04:14;;;;;;;2.08;1.90;;;38.20;32.80;;;;;;5047999;28;20265;-72
2022/08/01 11:07:00;;;;;;;1.95;1.85;;;38.30;32.60;;;;;;5041897;28;20629;-74
2022/08/01 11:10:20;;;;;;;2.03;1.85;;;38.50;32.60;;;;;;5039264;28;20222;-73
2022/08/01 11:12:50;;;;;;;4.40;1.85;;;38.60;32.60;;;;;;5042534;28;20548;-72
2022/08/01 11:15:24;;;;;;;2.08;1.83;;;38.60;32.60;;;;;;5048231;28;20636;-72
2022/08/01 11:17:58;;;;;;;6.55;1.90;;;38.70;32.00;;;;;;5041072;28;20707;-72
2022/08/01 11:20:30;;;;;;;2.17;2.00;;;38.70;31.50;;;;;;5048522;28;20203;-73
2022/08/01 11:23:00;;;;;;;2.85;1.95;;;38.70;31.70;;;;;;5049533;28;20729;-71
2022/08/01 11:25:45;;;;;;;4.03;1.60;;;38.70;31.70;;;;;;5045242;28;20520;-71
2022/08/01 11:28:33;;;;;;;2.67;1.52;;;38.80;32.10;;;;;;5050194;28;20289;-71
2022/08/01 11:31:09;;;;;;;2.22;1.85;;;38.80;31.90;;;;;;5044797;28;20237;-72
2022/08/01 11:33:40;;;;;;;2.28;1.80;;;38.80;32.10;;;;;;5058229;28;20207;-71
2022/08/01 11:36:15;;;;;;;5.07;1.90;;;38.80;31.60;;;;;;5043382;28;20207;-73
2022/08/01 11:38:43;;;;;;;2.95;1.83;;;38.80;31.30;;;;;;5048148;28;20619;-71
2022/08/01 11:41:16;;;;;;;2.13;1.73;;;38.70;30.40;;;;;;5049208;28;20286;-71
2022/08/01 11:44:05;;;;;;;2.90;1.75;;;38.50;31.30;;;;;;5046543;28;20237;-72
2022/08/01 11:46:56;;;;;;;2.15;1.48;;;38.50;31.70;;;;;;5042850;28;20195;-72
2022/08/01 11:49:26;;;;;;;2.50;1.95;;;38.50;31.60;;;;;;5039244;28;20211;-72
2022/08/01 11:52:08;;;;;;;1.50;1.40;;;38.50;31.20;;;;;;5045091;28;20198;-71
2022/08/01 11:54:50;;;;;;;2.78;2.20;;;38.60;31.40;;;;;;5057947;28;20187;-73
2022/08/01 11:57:22;;;;;;;2.50;1.88;;;38.70;31.30;;;;;;5030431;28;20706;-72
2022/08/01 12:00:13;;;;;;;1.98;1.88;;;38.70;31.20;;;;;;5037430;28;20251;-71
2022/08/01 12:02:43;;;;;;;1.70;1.60;;;38.80;31.50;;;;;;5046383;28;20226;-72
2022/08/01 12:05:16;;;;;;;3.05;1.80;;;38.80;31.60;;;;;;5053892;28;20226;-72
2022/08/01 12:07:45;;;;;;;2.72;1.65;;;38.90;30.60;;;;;;5062827;28;20202;-71
2022/08/01 12:10:21;;;;;;;1.73;1.50;;;38.90;30.40;;;;;;5044523;28;20210;-71
2022/08/01 12:12:51;;;;;;;3.03;1.77;;;38.80;30.30;;;;;;5060879;28;20212;-72
2022/08/01 12:15:22;;;;;;;1.63;1.42;;;38.70;30.00;;;;;;5046620;28;20264;-72
2022/08/01 12:17:57;;;;;;;1.50;1.33;;;38.60;30.90;;;;;;5043037;28;20203;-72
2022/08/01 12:20:32;;;;;;;2.10;1.60;;;38.70;30.40;;;;;;5064525;28;20211;-74
2022/08/01 12:23:07;;;;;;;1.60;1.50;;;38.70;30.60;;;;;;5046868;28;20207;-74
2022/08/01 12:25:36;;;;;;;1.73;1.40;;;38.80;30.30;;;;;;5061684;28;20216;-73
2022/08/01 12:28:05;;;;;;;2.25;1.70;;;38.90;30.20;;;;;;5052313;28;20202;-73
2022/08/01 12:30:35;;;;;;;3.35;1.52;;;39.00;29.60;;;;;;5045723;28;20196;-73
2022/08/01 12:33:10;;;;;;;3.00;1.60;;;39.00;30.00;;;;;;5046330;28;20203;-73
2022/08/01 12:35:38;;;;;;;1.60;1.50;;;39.00;30.00;;;;;;5057891;28;20207;-74
2022/08/01 12:38:13;;;;;;;5.03;1.75;;;39.00;29.70;;;;;;5047077;28;21276;-74
2022/08/01 12:40:42;;;;;;;1.50;1.40;;;39.10;29.60;;;;;;5053964;28;20202;-74
2022/08/01 12:43:18;;;;;;;1.70;1.60;;;39.10;29.90;;;;;;5031532;28;20234;-75
2022/08/01 12:45:56;;;;;;;1.83;1.50;;;39.10;30.30;;;;;;5053995;28;20308;-72
2022/08/01 12:48:24;;;;;;;3.55;1.80;;;39.00;30.00;;;;;;5051259;28;20194;-72
2022/08/01 12:50:52;;;;;;;3.40;1.80;;;39.10;30.10;;;;;;5043472;28;20214;-71
2022/08/01 12:53:21;;;;;;;1.90;1.55;;;39.10;29.70;;;;;;5049775;28;20195;-71
2022/08/01 12:55:51;;;;;;;2.60;1.50;;;39.10;29.60;;;;;;5050811;28;20203;-72
2022/08/01 12:58:35;;;;;;;2.97;1.35;;;39.00;29.50;;;;;;5050193;28;20206;-72
2022/08/01 13:01:10;;;;;;;2.88;1.40;;;38.90;30.20;;;;;;5046171;28;20206;-72
2022/08/01 13:03:38;;;;;;;6.75;1.67;;;38.80;29.30;;;;;;5048156;28;20222;-71
2022/08/01 13:06:14;;;;;;;6.40;1.55;;;38.70;29.50;;;;;;5051325;28;20225;-73
2022/08/01 13:08:43;;;;;;;2.55;1.55;;;38.60;29.80;;;;;;5062573;28;20446;-72
2022/08/01 13:11:15;;;;;;;2.83;1.42;;;38.60;30.00;;;;;;5048895;28;20214;-71
2022/08/01 13:13:48;;;;;;;3.13;1.50;;;38.60;30.10;;;;;;5040067;28;20249;-72